Weather at Tan Son Nhat International Airport

Public forecast

Using degrees Celsius for public forecast. Weather courtesy of forecast.io.

Current aviation weather report (METAR) for Tan Son Nhat International Airport

2024/07/21 06:30 (retrieved 24 minutes ago)

VVTS 210630Z 28012KT 250V310 9999 FEW030 SCT094 31/25 Q1007 NOSIG

Aviation forecast (TAF) for Tan Son Nhat International Airport

2024/07/21 06:37 (retrieved 17 minutes ago)

TAF VVTS 210500Z 2106/2212 25008KT 9999 SCT017 SCT040 TEMPO 2107/2110 24015G28KT 5000 TSRA BKN015 FEW017CB BKN040 TEMPO 2110/2114 5000 RA